sensor_id;sensor_type;location;lat;lon;timestamp;P1;durP1;ratioP1;P2;durP2;ratioP2
20697;SDS011;10508;50.956;4.640;2023-05-10T00:01:37;14.45;;;5.82;;
20697;SDS011;10508;50.956;4.640;2023-05-10T00:04:04;12.55;;;6.13;;
20697;SDS011;10508;50.956;4.640;2023-05-10T00:06:30;12.40;;;5.65;;
20697;SDS011;10508;50.956;4.640;2023-05-10T00:08:56;9.07;;;5.47;;
20697;SDS011;10508;50.956;4.640;2023-05-10T00:11:22;11.38;;;5.50;;
20697;SDS011;10508;50.956;4.640;2023-05-10T00:13:48;9.25;;;4.68;;
20697;SDS011;10508;50.956;4.640;2023-05-10T00:16:14;15.85;;;5.82;;
20697;SDS011;10508;50.956;4.640;2023-05-10T00:18:40;11.90;;;5.18;;
20697;SDS011;10508;50.956;4.640;2023-05-10T00:21:06;14.55;;;5.45;;
20697;SDS011;10508;50.956;4.640;2023-05-10T00:23:32;10.13;;;4.55;;
20697;SDS011;10508;50.956;4.640;2023-05-10T00:25:58;10.25;;;5.07;;
20697;SDS011;10508;50.956;4.640;2023-05-10T00:28:24;10.70;;;5.20;;
20697;SDS011;10508;50.956;4.640;2023-05-10T00:30:53;8.50;;;4.65;;
20697;SDS011;10508;50.956;4.640;2023-05-10T00:33:19;13.52;;;5.53;;
20697;SDS011;10508;50.956;4.640;2023-05-10T00:35:45;19.38;;;5.13;;
20697;SDS011;10508;50.956;4.640;2023-05-10T00:38:11;11.48;;;4.82;;
20697;SDS011;10508;50.956;4.640;2023-05-10T00:40:37;10.70;;;5.07;;
20697;SDS011;10508;50.956;4.640;2023-05-10T00:43:03;15.15;;;5.55;;
20697;SDS011;10508;50.956;4.640;2023-05-10T00:45:33;13.98;;;5.60;;
20697;SDS011;10508;50.956;4.640;2023-05-10T00:48:11;16.48;;;6.40;;
20697;SDS011;10508;50.956;4.640;2023-05-10T00:50:37;9.70;;;5.65;;
20697;SDS011;10508;50.956;4.640;2023-05-10T00:53:05;10.93;;;5.88;;
20697;SDS011;10508;50.956;4.640;2023-05-10T00:55:31;14.13;;;6.28;;
20697;SDS011;10508;50.956;4.640;2023-05-10T00:57:57;15.10;;;5.97;;
20697;SDS011;10508;50.956;4.640;2023-05-10T01:00:23;12.52;;;5.35;;
20697;SDS011;10508;50.956;4.640;2023-05-10T01:02:49;12.75;;;5.95;;
20697;SDS011;10508;50.956;4.640;2023-05-10T01:05:15;15.23;;;5.93;;
20697;SDS011;10508;50.956;4.640;2023-05-10T01:07:41;13.95;;;5.57;;
20697;SDS011;10508;50.956;4.640;2023-05-10T01:10:07;14.90;;;5.90;;
20697;SDS011;10508;50.956;4.640;2023-05-10T01:12:35;15.35;;;6.43;;
20697;SDS011;10508;50.956;4.640;2023-05-10T01:15:02;11.05;;;5.78;;
20697;SDS011;10508;50.956;4.640;2023-05-10T01:17:29;17.10;;;5.97;;
20697;SDS011;10508;50.956;4.640;2023-05-10T01:19:55;16.42;;;7.20;;
20697;SDS011;10508;50.956;4.640;2023-05-10T01:24:59;17.90;;;6.47;;
20697;SDS011;10508;50.956;4.640;2023-05-10T01:32:41;15.10;;;6.78;;
20697;SDS011;10508;50.956;4.640;2023-05-10T01:37:52;13.70;;;6.55;;
20697;SDS011;10508;50.956;4.640;2023-05-10T01:40:26;13.73;;;6.50;;
20697;SDS011;10508;50.956;4.640;2023-05-10T01:43:03;13.68;;;6.88;;
20697;SDS011;10508;50.956;4.640;2023-05-10T01:45:46;14.38;;;6.50;;
20697;SDS011;10508;50.956;4.640;2023-05-10T01:48:15;19.05;;;6.85;;
20697;SDS011;10508;50.956;4.640;2023-05-10T01:50:43;13.95;;;6.43;;
20697;SDS011;10508;50.956;4.640;2023-05-10T01:53:10;19.50;;;6.47;;
20697;SDS011;10508;50.956;4.640;2023-05-10T01:55:45;14.25;;;6.47;;
20697;SDS011;10508;50.956;4.640;2023-05-10T01:58:17;16.83;;;7.25;;
20697;SDS011;10508;50.956;4.640;2023-05-10T02:00:44;20.17;;;6.95;;
20697;SDS011;10508;50.956;4.640;2023-05-10T02:03:11;14.55;;;6.38;;
20697;SDS011;10508;50.956;4.640;2023-05-10T02:05:38;14.57;;;7.25;;
20697;SDS011;10508;50.956;4.640;2023-05-10T02:08:06;23.35;;;7.75;;
20697;SDS011;10508;50.956;4.640;2023-05-10T02:10:33;17.75;;;7.65;;
20697;SDS011;10508;50.956;4.640;2023-05-10T02:13:00;18.90;;;7.03;;
20697;SDS011;10508;50.956;4.640;2023-05-10T02:15:27;22.90;;;7.80;;
20697;SDS011;10508;50.956;4.640;2023-05-10T02:17:54;18.75;;;7.70;;
20697;SDS011;10508;50.956;4.640;2023-05-10T02:20:21;15.45;;;8.00;;
20697;SDS011;10508;50.956;4.640;2023-05-10T02:22:48;17.77;;;8.55;;
20697;SDS011;10508;50.956;4.640;2023-05-10T02:25:15;15.65;;;7.65;;
20697;SDS011;10508;50.956;4.640;2023-05-10T02:27:41;15.10;;;6.88;;
20697;SDS011;10508;50.956;4.640;2023-05-10T02:30:08;18.30;;;7.75;;
20697;SDS011;10508;50.956;4.640;2023-05-10T02:32:35;19.88;;;7.68;;
20697;SDS011;10508;50.956;4.640;2023-05-10T02:35:02;16.80;;;8.43;;
20697;SDS011;10508;50.956;4.640;2023-05-10T02:37:29;20.77;;;9.05;;
20697;SDS011;10508;50.956;4.640;2023-05-10T02:39:55;21.30;;;9.82;;
20697;SDS011;10508;50.956;4.640;2023-05-10T02:42:23;19.10;;;8.65;;
20697;SDS011;10508;50.956;4.640;2023-05-10T02:44:51;18.83;;;9.32;;
20697;SDS011;10508;50.956;4.640;2023-05-10T02:47:18;26.67;;;9.50;;
20697;SDS011;10508;50.956;4.640;2023-05-10T02:49:44;16.58;;;8.32;;
20697;SDS011;10508;50.956;4.640;2023-05-10T02:52:11;19.60;;;8.93;;
20697;SDS011;10508;50.956;4.640;2023-05-10T02:54:41;16.45;;;8.63;;
20697;SDS011;10508;50.956;4.640;2023-05-10T02:57:09;16.10;;;8.32;;
20697;SDS011;10508;50.956;4.640;2023-05-10T02:59:36;17.58;;;8.50;;
20697;SDS011;10508;50.956;4.640;2023-05-10T03:02:02;19.52;;;9.40;;
20697;SDS011;10508;50.956;4.640;2023-05-10T03:04:28;18.67;;;8.73;;
20697;SDS011;10508;50.956;4.640;2023-05-10T03:06:54;18.42;;;8.57;;
20697;SDS011;10508;50.956;4.640;2023-05-10T03:09:20;23.30;;;7.70;;
20697;SDS011;10508;50.956;4.640;2023-05-10T03:11:50;27.35;;;9.23;;
20697;SDS011;10508;50.956;4.640;2023-05-10T03:16:52;14.32;;;7.78;;
20697;SDS011;10508;50.956;4.640;2023-05-10T03:19:22;17.23;;;8.52;;
20697;SDS011;10508;50.956;4.640;2023-05-10T03:21:50;18.73;;;8.57;;
20697;SDS011;10508;50.956;4.640;2023-05-10T03:24:17;21.20;;;8.45;;
20697;SDS011;10508;50.956;4.640;2023-05-10T03:26:45;17.13;;;8.55;;
20697;SDS011;10508;50.956;4.640;2023-05-10T03:29:14;15.77;;;8.23;;
20697;SDS011;10508;50.956;4.640;2023-05-10T03:31:40;28.92;;;8.73;;
20697;SDS011;10508;50.956;4.640;2023-05-10T03:34:06;19.35;;;9.10;;
20697;SDS011;10508;50.956;4.640;2023-05-10T03:36:32;18.70;;;8.63;;
20697;SDS011;10508;50.956;4.640;2023-05-10T03:38:59;18.20;;;8.52;;
20697;SDS011;10508;50.956;4.640;2023-05-10T03:41:25;22.90;;;9.25;;
20697;SDS011;10508;50.956;4.640;2023-05-10T03:43:51;25.73;;;9.93;;
20697;SDS011;10508;50.956;4.640;2023-05-10T03:46:17;22.90;;;8.75;;
20697;SDS011;10508;50.956;4.640;2023-05-10T03:48:43;17.98;;;8.25;;
20697;SDS011;10508;50.956;4.640;2023-05-10T03:51:09;21.05;;;9.85;;
20697;SDS011;10508;50.956;4.640;2023-05-10T03:53:35;20.55;;;9.82;;
20697;SDS011;10508;50.956;4.640;2023-05-10T03:56:01;28.35;;;10.93;;
20697;SDS011;10508;50.956;4.640;2023-05-10T03:58:27;22.58;;;10.75;;
20697;SDS011;10508;50.956;4.640;2023-05-10T04:00:53;25.27;;;10.70;;
20697;SDS011;10508;50.956;4.640;2023-05-10T04:03:20;23.45;;;10.48;;
20697;SDS011;10508;50.956;4.640;2023-05-10T04:05:46;25.50;;;10.13;;
20697;SDS011;10508;50.956;4.640;2023-05-10T04:08:12;28.20;;;11.38;;
20697;SDS011;10508;50.956;4.640;2023-05-10T04:10:39;27.90;;;11.38;;
20697;SDS011;10508;50.956;4.640;2023-05-10T04:13:05;26.38;;;11.88;;
20697;SDS011;10508;50.956;4.640;2023-05-10T04:15:31;26.77;;;11.93;;
20697;SDS011;10508;50.956;4.640;2023-05-10T04:17:57;29.13;;;12.32;;
20697;SDS011;10508;50.956;4.640;2023-05-10T04:20:23;28.52;;;12.20;;
20697;SDS011;10508;50.956;4.640;2023-05-10T04:22:50;32.05;;;11.73;;
20697;SDS011;10508;50.956;4.640;2023-05-10T04:25:16;29.75;;;12.23;;
20697;SDS011;10508;50.956;4.640;2023-05-10T04:27:42;29.77;;;12.48;;
20697;SDS011;10508;50.956;4.640;2023-05-10T04:30:08;26.83;;;12.35;;
20697;SDS011;10508;50.956;4.640;2023-05-10T04:32:34;29.00;;;12.80;;
20697;SDS011;10508;50.956;4.640;2023-05-10T04:35:00;30.70;;;12.95;;
20697;SDS011;10508;50.956;4.640;2023-05-10T04:37:28;32.25;;;12.80;;
20697;SDS011;10508;50.956;4.640;2023-05-10T04:39:54;27.45;;;12.02;;
20697;SDS011;10508;50.956;4.640;2023-05-10T04:42:20;32.85;;;13.50;;
20697;SDS011;10508;50.956;4.640;2023-05-10T04:44:46;33.00;;;13.45;;
20697;SDS011;10508;50.956;4.640;2023-05-10T04:47:12;32.88;;;12.93;;
20697;SDS011;10508;50.956;4.640;2023-05-10T04:49:38;32.90;;;13.30;;
20697;SDS011;10508;50.956;4.640;2023-05-10T04:52:04;37.83;;;13.57;;
20697;SDS011;10508;50.956;4.640;2023-05-10T04:54:30;37.88;;;14.60;;
20697;SDS011;10508;50.956;4.640;2023-05-10T04:56:56;34.92;;;13.63;;
20697;SDS011;10508;50.956;4.640;2023-05-10T04:59:22;35.75;;;14.07;;
20697;SDS011;10508;50.956;4.640;2023-05-10T05:01:48;38.97;;;13.95;;
20697;SDS011;10508;50.956;4.640;2023-05-10T05:04:14;38.53;;;14.93;;
20697;SDS011;10508;50.956;4.640;2023-05-10T05:06:40;41.83;;;15.75;;
20697;SDS011;10508;50.956;4.640;2023-05-10T05:09:06;40.00;;;14.68;;
20697;SDS011;10508;50.956;4.640;2023-05-10T05:11:32;34.05;;;13.98;;
20697;SDS011;10508;50.956;4.640;2023-05-10T05:13:58;45.88;;;14.05;;
20697;SDS011;10508;50.956;4.640;2023-05-10T05:16:24;38.20;;;14.20;;
20697;SDS011;10508;50.956;4.640;2023-05-10T05:18:51;34.05;;;14.32;;
20697;SDS011;10508;50.956;4.640;2023-05-10T05:21:18;33.45;;;14.02;;
20697;SDS011;10508;50.956;4.640;2023-05-10T05:23:44;32.83;;;13.02;;
20697;SDS011;10508;50.956;4.640;2023-05-10T05:26:10;36.97;;;14.88;;
20697;SDS011;10508;50.956;4.640;2023-05-10T05:28:37;33.17;;;13.48;;
20697;SDS011;10508;50.956;4.640;2023-05-10T05:31:04;27.85;;;12.90;;
20697;SDS011;10508;50.956;4.640;2023-05-10T05:33:30;35.90;;;13.70;;
20697;SDS011;10508;50.956;4.640;2023-05-10T05:35:57;35.83;;;14.13;;
20697;SDS011;10508;50.956;4.640;2023-05-10T05:38:23;35.20;;;14.13;;
20697;SDS011;10508;50.956;4.640;2023-05-10T05:40:49;32.40;;;13.18;;
20697;SDS011;10508;50.956;4.640;2023-05-10T05:43:15;33.85;;;13.25;;
20697;SDS011;10508;50.956;4.640;2023-05-10T05:45:41;30.73;;;13.60;;
20697;SDS011;10508;50.956;4.640;2023-05-10T05:48:07;34.92;;;13.55;;
20697;SDS011;10508;50.956;4.640;2023-05-10T05:50:33;35.22;;;13.27;;
20697;SDS011;10508;50.956;4.640;2023-05-10T05:52:59;32.58;;;12.43;;
20697;SDS011;10508;50.956;4.640;2023-05-10T05:55:25;27.10;;;11.73;;
20697;SDS011;10508;50.956;4.640;2023-05-10T05:57:51;32.05;;;12.85;;
20697;SDS011;10508;50.956;4.640;2023-05-10T06:00:17;28.17;;;12.43;;
20697;SDS011;10508;50.956;4.640;2023-05-10T06:02:43;24.55;;;12.20;;
20697;SDS011;10508;50.956;4.640;2023-05-10T06:05:09;28.30;;;12.00;;
20697;SDS011;10508;50.956;4.640;2023-05-10T06:07:35;32.00;;;13.27;;
20697;SDS011;10508;50.956;4.640;2023-05-10T06:10:01;30.70;;;12.57;;
20697;SDS011;10508;50.956;4.640;2023-05-10T06:12:28;31.13;;;12.65;;
20697;SDS011;10508;50.956;4.640;2023-05-10T06:14:54;41.15;;;13.23;;
20697;SDS011;10508;50.956;4.640;2023-05-10T06:17:20;28.95;;;12.75;;
20697;SDS011;10508;50.956;4.640;2023-05-10T06:19:46;26.08;;;11.65;;
20697;SDS011;10508;50.956;4.640;2023-05-10T06:22:12;29.48;;;12.38;;
20697;SDS011;10508;50.956;4.640;2023-05-10T06:24:38;29.75;;;12.98;;
20697;SDS011;10508;50.956;4.640;2023-05-10T06:27:05;25.05;;;11.13;;
20697;SDS011;10508;50.956;4.640;2023-05-10T06:29:32;34.97;;;12.75;;
20697;SDS011;10508;50.956;4.640;2023-05-10T06:31:58;24.20;;;11.73;;
20697;SDS011;10508;50.956;4.640;2023-05-10T06:34:24;29.67;;;11.88;;
20697;SDS011;10508;50.956;4.640;2023-05-10T06:36:50;28.38;;;12.43;;
20697;SDS011;10508;50.956;4.640;2023-05-10T06:39:16;28.45;;;11.13;;
20697;SDS011;10508;50.956;4.640;2023-05-10T06:41:43;30.13;;;13.25;;
20697;SDS011;10508;50.956;4.640;2023-05-10T06:44:09;25.08;;;11.95;;
20697;SDS011;10508;50.956;4.640;2023-05-10T06:46:35;24.00;;;11.68;;
20697;SDS011;10508;50.956;4.640;2023-05-10T06:49:01;26.95;;;12.15;;
20697;SDS011;10508;50.956;4.640;2023-05-10T06:51:27;24.63;;;11.32;;
20697;SDS011;10508;50.956;4.640;2023-05-10T06:53:53;30.58;;;12.45;;
20697;SDS011;10508;50.956;4.640;2023-05-10T06:56:19;28.80;;;12.02;;
20697;SDS011;10508;50.956;4.640;2023-05-10T06:58:47;28.60;;;12.43;;
20697;SDS011;10508;50.956;4.640;2023-05-10T07:01:13;24.35;;;11.73;;
20697;SDS011;10508;50.956;4.640;2023-05-10T07:03:39;29.17;;;13.10;;
20697;SDS011;10508;50.956;4.640;2023-05-10T07:06:05;26.63;;;10.45;;
20697;SDS011;10508;50.956;4.640;2023-05-10T07:08:32;27.80;;;10.82;;
20697;SDS011;10508;50.956;4.640;2023-05-10T07:11:01;27.50;;;12.23;;
20697;SDS011;10508;50.956;4.640;2023-05-10T07:13:28;31.42;;;12.90;;
20697;SDS011;10508;50.956;4.640;2023-05-10T07:15:54;28.45;;;11.13;;
20697;SDS011;10508;50.956;4.640;2023-05-10T07:18:20;23.10;;;10.43;;
20697;SDS011;10508;50.956;4.640;2023-05-10T07:20:46;27.40;;;11.95;;
20697;SDS011;10508;50.956;4.640;2023-05-10T07:23:12;27.90;;;12.23;;
20697;SDS011;10508;50.956;4.640;2023-05-10T07:25:38;22.10;;;11.25;;
20697;SDS011;10508;50.956;4.640;2023-05-10T07:28:04;23.17;;;10.80;;
20697;SDS011;10508;50.956;4.640;2023-05-10T07:30:30;24.15;;;12.10;;
20697;SDS011;10508;50.956;4.640;2023-05-10T07:32:56;23.02;;;10.70;;
20697;SDS011;10508;50.956;4.640;2023-05-10T07:35:22;23.73;;;11.63;;
20697;SDS011;10508;50.956;4.640;2023-05-10T07:37:48;22.52;;;10.75;;
20697;SDS011;10508;50.956;4.640;2023-05-10T07:40:14;25.08;;;10.65;;
20697;SDS011;10508;50.956;4.640;2023-05-10T07:42:40;22.52;;;10.27;;
20697;SDS011;10508;50.956;4.640;2023-05-10T07:45:06;27.75;;;11.10;;
20697;SDS011;10508;50.956;4.640;2023-05-10T07:47:33;15.80;;;7.50;;
20697;SDS011;10508;50.956;4.640;2023-05-10T07:49:59;15.80;;;7.32;;
20697;SDS011;10508;50.956;4.640;2023-05-10T07:52:25;18.05;;;7.55;;
20697;SDS011;10508;50.956;4.640;2023-05-10T07:54:51;17.88;;;7.20;;
20697;SDS011;10508;50.956;4.640;2023-05-10T07:57:17;17.33;;;6.47;;
20697;SDS011;10508;50.956;4.640;2023-05-10T07:59:43;17.70;;;7.13;;
20697;SDS011;10508;50.956;4.640;2023-05-10T08:02:10;15.95;;;6.88;;
20697;SDS011;10508;50.956;4.640;2023-05-10T08:04:36;20.45;;;8.32;;
20697;SDS011;10508;50.956;4.640;2023-05-10T08:07:02;15.02;;;7.93;;
20697;SDS011;10508;50.956;4.640;2023-05-10T08:09:28;20.27;;;7.78;;
20697;SDS011;10508;50.956;4.640;2023-05-10T08:11:54;21.17;;;7.82;;
20697;SDS011;10508;50.956;4.640;2023-05-10T08:14:20;19.35;;;8.95;;
20697;SDS011;10508;50.956;4.640;2023-05-10T08:16:46;24.50;;;8.93;;
20697;SDS011;10508;50.956;4.640;2023-05-10T08:19:12;17.27;;;7.28;;
20697;SDS011;10508;50.956;4.640;2023-05-10T08:21:38;19.40;;;8.95;;
20697;SDS011;10508;50.956;4.640;2023-05-10T08:24:05;20.60;;;8.40;;
20697;SDS011;10508;50.956;4.640;2023-05-10T08:26:32;17.85;;;8.15;;
20697;SDS011;10508;50.956;4.640;2023-05-10T08:28:58;15.18;;;7.95;;
20697;SDS011;10508;50.956;4.640;2023-05-10T08:31:24;18.92;;;7.82;;
20697;SDS011;10508;50.956;4.640;2023-05-10T08:33:50;19.92;;;8.75;;
20697;SDS011;10508;50.956;4.640;2023-05-10T08:36:17;19.75;;;8.52;;
20697;SDS011;10508;50.956;4.640;2023-05-10T08:38:52;19.40;;;8.07;;
20697;SDS011;10508;50.956;4.640;2023-05-10T08:41:21;15.95;;;7.32;;
20697;SDS011;10508;50.956;4.640;2023-05-10T08:43:49;19.48;;;8.40;;
20697;SDS011;10508;50.956;4.640;2023-05-10T08:46:16;16.95;;;7.68;;
20697;SDS011;10508;50.956;4.640;2023-05-10T08:48:46;26.58;;;8.10;;
20697;SDS011;10508;50.956;4.640;2023-05-10T08:51:19;20.08;;;7.47;;
20697;SDS011;10508;50.956;4.640;2023-05-10T08:53:47;17.52;;;6.53;;
20697;SDS011;10508;50.956;4.640;2023-05-10T08:56:13;16.75;;;7.28;;
20697;SDS011;10508;50.956;4.640;2023-05-10T08:58:41;17.75;;;7.13;;
20697;SDS011;10508;50.956;4.640;2023-05-10T09:01:07;14.65;;;6.75;;
20697;SDS011;10508;50.956;4.640;2023-05-10T09:03:34;23.73;;;8.50;;
20697;SDS011;10508;50.956;4.640;2023-05-10T09:06:00;18.67;;;7.70;;
20697;SDS011;10508;50.956;4.640;2023-05-10T09:08:26;18.67;;;7.85;;
20697;SDS011;10508;50.956;4.640;2023-05-10T09:10:53;14.13;;;7.03;;
20697;SDS011;10508;50.956;4.640;2023-05-10T09:13:21;21.52;;;8.27;;
20697;SDS011;10508;50.956;4.640;2023-05-10T09:15:47;20.40;;;7.53;;
20697;SDS011;10508;50.956;4.640;2023-05-10T09:18:13;13.45;;;7.10;;
20697;SDS011;10508;50.956;4.640;2023-05-10T09:20:40;14.13;;;7.57;;
20697;SDS011;10508;50.956;4.640;2023-05-10T09:23:06;18.05;;;6.65;;
20697;SDS011;10508;50.956;4.640;2023-05-10T09:25:32;18.95;;;7.50;;
20697;SDS011;10508;50.956;4.640;2023-05-10T09:27:58;14.48;;;6.25;;
20697;SDS011;10508;50.956;4.640;2023-05-10T09:32:51;14.32;;;7.22;;
20697;SDS011;10508;50.956;4.640;2023-05-10T09:35:18;22.23;;;9.48;;
20697;SDS011;10508;50.956;4.640;2023-05-10T09:37:45;14.27;;;7.95;;
20697;SDS011;10508;50.956;4.640;2023-05-10T09:40:14;14.63;;;6.70;;
20697;SDS011;10508;50.956;4.640;2023-05-10T09:42:41;15.02;;;5.75;;
20697;SDS011;10508;50.956;4.640;2023-05-10T09:45:08;15.85;;;6.80;;
20697;SDS011;10508;50.956;4.640;2023-05-10T09:47:34;14.55;;;6.45;;
20697;SDS011;10508;50.956;4.640;2023-05-10T09:50:01;18.20;;;5.20;;
20697;SDS011;10508;50.956;4.640;2023-05-10T09:52:48;12.52;;;5.45;;
20697;SDS011;10508;50.956;4.640;2023-05-10T09:55:15;10.77;;;4.85;;
20697;SDS011;10508;50.956;4.640;2023-05-10T09:57:41;14.00;;;4.82;;
20697;SDS011;10508;50.956;4.640;2023-05-10T10:00:07;9.95;;;4.40;;
20697;SDS011;10508;50.956;4.640;2023-05-10T10:02:35;12.80;;;4.75;;
20697;SDS011;10508;50.956;4.640;2023-05-10T10:05:02;15.60;;;5.35;;
20697;SDS011;10508;50.956;4.640;2023-05-10T10:07:28;9.63;;;4.57;;
20697;SDS011;10508;50.956;4.640;2023-05-10T10:09:54;10.32;;;4.57;;
20697;SDS011;10508;50.956;4.640;2023-05-10T10:12:20;8.98;;;4.63;;
20697;SDS011;10508;50.956;4.640;2023-05-10T10:14:47;15.15;;;5.50;;
20697;SDS011;10508;50.956;4.640;2023-05-10T10:17:15;11.13;;;5.20;;
20697;SDS011;10508;50.956;4.640;2023-05-10T10:19:41;9.80;;;4.93;;
20697;SDS011;10508;50.956;4.640;2023-05-10T10:22:07;10.30;;;4.65;;
20697;SDS011;10508;50.956;4.640;2023-05-10T10:24:35;10.45;;;4.80;;
20697;SDS011;10508;50.956;4.640;2023-05-10T10:27:10;16.15;;;5.53;;
20697;SDS011;10508;50.956;4.640;2023-05-10T10:29:43;8.57;;;4.22;;
20697;SDS011;10508;50.956;4.640;2023-05-10T10:32:26;13.65;;;4.75;;
20697;SDS011;10508;50.956;4.640;2023-05-10T10:34:53;12.90;;;4.93;;
20697;SDS011;10508;50.956;4.640;2023-05-10T10:37:21;13.90;;;4.30;;
20697;SDS011;10508;50.956;4.640;2023-05-10T10:39:50;25.40;;;6.20;;
20697;SDS011;10508;50.956;4.640;2023-05-10T10:42:43;7.57;;;3.47;;
20697;SDS011;10508;50.956;4.640;2023-05-10T10:45:11;7.97;;;3.60;;
20697;SDS011;10508;50.956;4.640;2023-05-10T10:47:38;8.25;;;3.42;;
20697;SDS011;10508;50.956;4.640;2023-05-10T10:50:05;7.15;;;3.53;;
20697;SDS011;10508;50.956;4.640;2023-05-10T10:55:10;9.73;;;4.03;;
20697;SDS011;10508;50.956;4.640;2023-05-10T10:57:43;10.25;;;3.97;;
20697;SDS011;10508;50.956;4.640;2023-05-10T11:00:26;7.35;;;3.22;;
20697;SDS011;10508;50.956;4.640;2023-05-10T11:03:01;9.05;;;3.80;;
20697;SDS011;10508;50.956;4.640;2023-05-10T11:08:06;6.30;;;3.53;;
20697;SDS011;10508;50.956;4.640;2023-05-10T11:10:33;4.85;;;2.70;;
20697;SDS011;10508;50.956;4.640;2023-05-10T11:13:02;7.18;;;2.83;;
20697;SDS011;10508;50.956;4.640;2023-05-10T11:15:34;5.97;;;3.00;;
20697;SDS011;10508;50.956;4.640;2023-05-10T11:18:16;6.40;;;2.65;;
20697;SDS011;10508;50.956;4.640;2023-05-10T11:20:42;8.63;;;3.03;;
20697;SDS011;10508;50.956;4.640;2023-05-10T11:23:12;6.90;;;3.83;;
20697;SDS011;10508;50.956;4.640;2023-05-10T11:25:44;8.75;;;3.45;;
20697;SDS011;10508;50.956;4.640;2023-05-10T11:28:10;5.97;;;2.50;;
20697;SDS011;10508;50.956;4.640;2023-05-10T11:30:40;5.43;;;3.50;;
20697;SDS011;10508;50.956;4.640;2023-05-10T11:33:07;9.13;;;3.55;;
20697;SDS011;10508;50.956;4.640;2023-05-10T11:35:40;7.15;;;2.80;;
20697;SDS011;10508;50.956;4.640;2023-05-10T11:38:09;6.57;;;3.03;;
20697;SDS011;10508;50.956;4.640;2023-05-10T11:40:36;5.82;;;3.08;;
20697;SDS011;10508;50.956;4.640;2023-05-10T11:43:03;6.43;;;2.70;;
20697;SDS011;10508;50.956;4.640;2023-05-10T11:45:33;6.82;;;2.78;;
20697;SDS011;10508;50.956;4.640;2023-05-10T11:48:00;4.82;;;2.47;;
20697;SDS011;10508;50.956;4.640;2023-05-10T11:50:26;6.32;;;3.30;;
20697;SDS011;10508;50.956;4.640;2023-05-10T11:52:53;5.88;;;3.03;;
20697;SDS011;10508;50.956;4.640;2023-05-10T11:55:20;4.35;;;2.67;;
20697;SDS011;10508;50.956;4.640;2023-05-10T11:57:46;4.60;;;2.55;;
20697;SDS011;10508;50.956;4.640;2023-05-10T12:00:12;6.20;;;3.17;;
20697;SDS011;10508;50.956;4.640;2023-05-10T12:02:39;4.22;;;2.22;;
20697;SDS011;10508;50.956;4.640;2023-05-10T12:05:05;6.35;;;3.10;;
20697;SDS011;10508;50.956;4.640;2023-05-10T12:07:31;3.33;;;2.40;;
20697;SDS011;10508;50.956;4.640;2023-05-10T12:10:07;4.55;;;2.75;;
20697;SDS011;10508;50.956;4.640;2023-05-10T12:12:39;3.67;;;2.30;;
20697;SDS011;10508;50.956;4.640;2023-05-10T12:15:10;4.50;;;2.60;;
20697;SDS011;10508;50.956;4.640;2023-05-10T12:17:37;6.32;;;2.55;;
20697;SDS011;10508;50.956;4.640;2023-05-10T12:20:13;5.72;;;2.95;;
20697;SDS011;10508;50.956;4.640;2023-05-10T12:22:40;4.72;;;2.65;;
20697;SDS011;10508;50.956;4.640;2023-05-10T12:25:07;3.97;;;2.40;;
20697;SDS011;10508;50.956;4.640;2023-05-10T12:27:34;3.60;;;2.33;;
20697;SDS011;10508;50.956;4.640;2023-05-10T12:30:00;4.50;;;2.90;;
20697;SDS011;10508;50.956;4.640;2023-05-10T12:32:39;5.95;;;2.28;;
20697;SDS011;10508;50.956;4.640;2023-05-10T12:35:05;6.63;;;2.88;;
20697;SDS011;10508;50.956;4.640;2023-05-10T12:37:32;8.38;;;2.47;;
20697;SDS011;10508;50.956;4.640;2023-05-10T12:40:00;4.50;;;2.13;;
20697;SDS011;10508;50.956;4.640;2023-05-10T12:42:27;3.25;;;1.90;;
20697;SDS011;10508;50.956;4.640;2023-05-10T12:44:55;5.30;;;2.58;;
20697;SDS011;10508;50.956;4.640;2023-05-10T12:47:21;6.18;;;2.70;;
20697;SDS011;10508;50.956;4.640;2023-05-10T12:49:47;5.57;;;2.45;;
20697;SDS011;10508;50.956;4.640;2023-05-10T12:52:13;4.60;;;2.65;;
20697;SDS011;10508;50.956;4.640;2023-05-10T12:54:39;7.30;;;3.13;;
20697;SDS011;10508;50.956;4.640;2023-05-10T12:57:05;4.90;;;2.50;;
20697;SDS011;10508;50.956;4.640;2023-05-10T12:59:31;14.27;;;2.70;;
20697;SDS011;10508;50.956;4.640;2023-05-10T13:01:57;18.35;;;3.28;;
20697;SDS011;10508;50.956;4.640;2023-05-10T13:04:23;6.57;;;3.22;;
20697;SDS011;10508;50.956;4.640;2023-05-10T13:06:49;7.68;;;2.95;;
20697;SDS011;10508;50.956;4.640;2023-05-10T13:09:15;5.55;;;2.80;;
20697;SDS011;10508;50.956;4.640;2023-05-10T13:11:41;6.50;;;2.88;;
20697;SDS011;10508;50.956;4.640;2023-05-10T13:14:08;7.15;;;2.83;;
20697;SDS011;10508;50.956;4.640;2023-05-10T13:16:34;5.00;;;2.92;;
20697;SDS011;10508;50.956;4.640;2023-05-10T13:19:00;6.57;;;2.92;;
20697;SDS011;10508;50.956;4.640;2023-05-10T13:21:26;5.88;;;3.15;;
20697;SDS011;10508;50.956;4.640;2023-05-10T13:23:52;6.15;;;3.13;;
20697;SDS011;10508;50.956;4.640;2023-05-10T13:26:18;4.10;;;2.60;;
20697;SDS011;10508;50.956;4.640;2023-05-10T13:28:45;7.82;;;2.92;;
20697;SDS011;10508;50.956;4.640;2023-05-10T13:31:11;11.13;;;3.08;;
20697;SDS011;10508;50.956;4.640;2023-05-10T13:33:37;7.35;;;3.20;;
20697;SDS011;10508;50.956;4.640;2023-05-10T13:36:03;9.68;;;2.83;;
20697;SDS011;10508;50.956;4.640;2023-05-10T13:38:29;4.72;;;2.47;;
20697;SDS011;10508;50.956;4.640;2023-05-10T13:40:55;9.23;;;3.88;;
20697;SDS011;10508;50.956;4.640;2023-05-10T13:43:21;10.68;;;2.85;;
20697;SDS011;10508;50.956;4.640;2023-05-10T13:45:47;6.00;;;3.30;;
20697;SDS011;10508;50.956;4.640;2023-05-10T13:48:13;6.20;;;3.72;;
20697;SDS011;10508;50.956;4.640;2023-05-10T13:50:40;8.50;;;3.67;;
20697;SDS011;10508;50.956;4.640;2023-05-10T13:53:06;7.20;;;4.00;;
20697;SDS011;10508;50.956;4.640;2023-05-10T13:55:32;6.97;;;3.03;;
20697;SDS011;10508;50.956;4.640;2023-05-10T13:57:58;9.20;;;3.50;;
20697;SDS011;10508;50.956;4.640;2023-05-10T14:00:25;10.60;;;3.85;;
20697;SDS011;10508;50.956;4.640;2023-05-10T14:02:51;5.68;;;3.20;;
20697;SDS011;10508;50.956;4.640;2023-05-10T14:05:17;11.70;;;3.42;;
20697;SDS011;10508;50.956;4.640;2023-05-10T14:07:43;4.55;;;2.92;;
20697;SDS011;10508;50.956;4.640;2023-05-10T14:10:09;6.15;;;3.22;;
20697;SDS011;10508;50.956;4.640;2023-05-10T14:12:35;7.15;;;3.35;;
20697;SDS011;10508;50.956;4.640;2023-05-10T14:15:01;7.03;;;3.63;;
20697;SDS011;10508;50.956;4.640;2023-05-10T14:17:27;9.07;;;3.33;;
20697;SDS011;10508;50.956;4.640;2023-05-10T14:19:53;12.25;;;3.17;;
20697;SDS011;10508;50.956;4.640;2023-05-10T14:22:19;7.30;;;3.10;;
20697;SDS011;10508;50.956;4.640;2023-05-10T14:24:45;4.85;;;3.10;;
20697;SDS011;10508;50.956;4.640;2023-05-10T14:27:12;6.80;;;3.10;;
20697;SDS011;10508;50.956;4.640;2023-05-10T14:29:38;3.60;;;2.63;;
20697;SDS011;10508;50.956;4.640;2023-05-10T14:32:04;5.22;;;2.60;;
20697;SDS011;10508;50.956;4.640;2023-05-10T14:34:30;6.55;;;3.40;;
20697;SDS011;10508;50.956;4.640;2023-05-10T14:36:56;7.68;;;2.92;;
20697;SDS011;10508;50.956;4.640;2023-05-10T14:39:23;4.32;;;2.50;;
20697;SDS011;10508;50.956;4.640;2023-05-10T14:41:49;8.85;;;3.67;;
20697;SDS011;10508;50.956;4.640;2023-05-10T14:44:16;5.88;;;3.03;;
20697;SDS011;10508;50.956;4.640;2023-05-10T14:46:42;6.18;;;3.10;;
20697;SDS011;10508;50.956;4.640;2023-05-10T14:49:08;7.38;;;3.97;;
20697;SDS011;10508;50.956;4.640;2023-05-10T14:51:34;13.15;;;3.53;;
20697;SDS011;10508;50.956;4.640;2023-05-10T14:54:01;6.00;;;2.85;;
20697;SDS011;10508;50.956;4.640;2023-05-10T14:56:27;5.25;;;3.55;;